Janesville, Wisconsin
Current Conditions -  °F | °C
As of 7:45 AM on Tuesday 21 Oct 2014 (Local Time) from KJVL Reporting Station
Scattered Clouds Scattered Clouds  
Wind Chill:   Ceiling: Unl
Heat Index:   Visibility: 10mi
Dew Point:   Wind: 8mph
Humidity: 71%   Direction: 30°NNE
Pressure: 30.16"   Gusts: NA
Location:  42.69°N, 89.02°W
Report Text: KJVL 211245Z 03007KT 10SM SCT120 08/03 A3016
Loading
Personal Weather Stations






























Interactive Weather Map
Tropical Storm Tracking
New forecast layout! Learn more

10-Day Weather Forecast

Advertisements
Track Severe Weather on mobile